Terminal Aerodrome Forecast
Issued by NWS Bismarck, ND

Home | Current Version | Previous Version | Text Only | Print | Product List | Glossary Off
Versions: 1 2 3 4 5 6 7 8 9 10 11 12 13 14 15 16 17 18 19 20 21 22 23

000
FTUS43 KBIS 280520
TAFISN
TAF
KISN 280520Z 2806/2906 06008KT P6SM VCSH BKN040
     FM280800 06008KT 6SM BR BKN030
     FM281000 08008KT 1 1/2SM BR OVC010
     FM281600 09007KT P6SM BKN025
     FM281800 12007KT P6SM BKN035=

USA.gov is the U.S. government's official web portal to all federal, state and local government web resources and services.